Time;durP1;ratioP1;P1;durP2;ratioP2;P2;SDS_P1;SDS_P2;PMS_P1;PMS_P2;Temp;Humidity;BMP_temperature;BMP_pressure;BME280_temperature;BME280_humidity;BME280_pressure;Samples;Min_cycle;Max_cycle;Signal;HPM_P1;HPM_P2
2023/09/07 00:01:17;;;;;;;4.88;3.70;;;20.20;99.90;;;;;;5051354;28;20201;-66
2023/09/07 00:03:42;;;;;;;5.10;4.05;;;20.20;99.90;;;;;;5053936;28;20201;-65
2023/09/07 00:06:08;;;;;;;5.30;3.83;;;20.10;99.90;;;;;;5051085;28;20211;-66
2023/09/07 00:08:34;;;;;;;6.43;4.43;;;20.10;99.90;;;;;;5060328;28;20205;-66
2023/09/07 00:11:06;;;;;;;7.03;4.53;;;20.00;99.90;;;;;;5039801;28;20224;-66
2023/09/07 00:13:35;;;;;;;4.50;3.80;;;20.00;99.90;;;;;;5049820;28;20303;-67
2023/09/07 00:16:03;;;;;;;4.85;4.03;;;19.90;99.90;;;;;;5053690;28;20216;-66
2023/09/07 00:18:33;;;;;;;4.35;3.78;;;19.80;99.90;;;;;;5050856;28;20181;-66
2023/09/07 00:20:59;;;;;;;6.03;4.25;;;19.80;99.90;;;;;;5052783;28;20264;-66
2023/09/07 00:23:28;;;;;;;5.10;4.03;;;19.70;99.90;;;;;;5051067;28;20221;-66
2023/09/07 00:25:56;;;;;;;5.07;3.72;;;19.70;99.90;;;;;;5047464;28;20186;-66
2023/09/07 00:28:24;;;;;;;5.30;3.83;;;19.60;99.90;;;;;;5043176;28;20177;-66
2023/09/07 00:30:50;;;;;;;3.83;3.42;;;19.60;99.90;;;;;;5049257;28;20200;-66
2023/09/07 00:33:18;;;;;;;5.90;3.92;;;19.60;99.90;;;;;;5033944;28;20399;-66
2023/09/07 00:35:43;;;;;;;4.70;4.15;;;19.60;99.90;;;;;;5044649;28;20202;-65
2023/09/07 00:38:11;;;;;;;4.18;3.53;;;19.60;99.90;;;;;;5061063;28;20189;-66
2023/09/07 00:40:37;;;;;;;4.43;3.75;;;19.50;99.90;;;;;;5061464;28;20527;-66
2023/09/07 00:43:04;;;;;;;5.10;3.85;;;19.60;99.90;;;;;;5049960;28;20300;-66
2023/09/07 00:45:32;;;;;;;5.10;3.90;;;19.50;99.90;;;;;;5040863;28;20182;-67
2023/09/07 00:47:58;;;;;;;4.53;3.53;;;19.50;99.90;;;;;;5054028;28;20181;-66
2023/09/07 00:50:24;;;;;;;3.90;3.38;;;19.50;99.90;;;;;;5042007;28;20273;-65
2023/09/07 00:52:54;;;;;;;4.68;3.75;;;19.50;99.90;;;;;;5049201;28;20185;-66
2023/09/07 00:55:21;;;;;;;4.43;3.70;;;19.50;99.90;;;;;;5052810;28;20314;-66
2023/09/07 00:57:47;;;;;;;5.05;3.97;;;19.50;99.90;;;;;;5052932;28;20173;-66
2023/09/07 01:00:13;;;;;;;5.63;4.13;;;19.50;99.90;;;;;;5051134;28;20189;-66
2023/09/07 01:02:42;;;;;;;6.18;4.40;;;19.50;99.90;;;;;;5045556;28;20194;-66
2023/09/07 01:05:07;;;;;;;6.35;4.13;;;19.50;99.90;;;;;;5057047;28;20188;-66
2023/09/07 01:07:44;;;;;;;6.25;3.72;;;19.40;99.90;;;;;;5045173;28;20181;-66
2023/09/07 01:10:10;;;;;;;4.82;3.47;;;19.40;99.90;;;;;;5053857;28;20174;-66
2023/09/07 01:12:38;;;;;;;4.25;3.53;;;19.40;99.90;;;;;;5054829;28;20169;-76
2023/09/07 01:15:04;;;;;;;4.00;3.50;;;19.40;99.90;;;;;;5055269;28;20213;-74
2023/09/07 01:17:30;;;;;;;5.47;3.88;;;19.30;99.90;;;;;;5055151;28;20201;-75
2023/09/07 01:19:59;;;;;;;4.38;3.85;;;19.30;99.90;;;;;;5058029;28;20170;-74
2023/09/07 01:22:24;;;;;;;4.70;3.35;;;19.20;99.90;;;;;;5057624;28;20189;-75
2023/09/07 01:24:53;;;;;;;4.70;3.72;;;19.20;99.90;;;;;;5057891;28;20178;-74
2023/09/07 01:27:19;;;;;;;5.95;3.90;;;19.20;99.90;;;;;;5057545;28;20178;-76
2023/09/07 01:29:45;;;;;;;5.35;3.97;;;19.20;99.90;;;;;;5058794;28;20188;-77
2023/09/07 01:32:11;;;;;;;5.13;3.47;;;19.10;99.90;;;;;;5060385;28;20181;-67
2023/09/07 01:34:42;;;;;;;5.10;3.80;;;19.10;99.90;;;;;;5060769;28;20209;-76
2023/09/07 01:37:08;;;;;;;5.20;3.63;;;19.10;99.90;;;;;;5059889;28;20166;-76
2023/09/07 01:39:36;;;;;;;5.10;3.78;;;19.10;99.90;;;;;;5058415;28;20184;-75
2023/09/07 01:42:02;;;;;;;4.18;3.50;;;19.10;99.90;;;;;;5058648;28;20199;-76
2023/09/07 01:44:30;;;;;;;4.10;3.22;;;19.10;99.90;;;;;;5057550;28;20170;-76
2023/09/07 01:47:00;;;;;;;5.03;3.72;;;19.10;99.90;;;;;;5056915;28;20185;-76
2023/09/07 01:49:26;;;;;;;4.82;3.90;;;19.20;99.90;;;;;;5054318;28;20201;-76
2023/09/07 01:51:52;;;;;;;4.75;3.80;;;19.20;99.90;;;;;;5056667;28;20205;-77
2023/09/07 01:54:23;;;;;;;4.53;3.55;;;19.20;99.90;;;;;;5056003;28;20213;-75
2023/09/07 01:56:49;;;;;;;3.78;3.35;;;19.20;99.90;;;;;;5052591;28;20177;-76
2023/09/07 01:59:17;;;;;;;4.05;3.38;;;19.10;99.90;;;;;;5046414;28;20184;-74
2023/09/07 02:01:42;;;;;;;4.95;3.42;;;19.20;99.90;;;;;;5050960;28;20204;-73
2023/09/07 02:04:10;;;;;;;5.15;3.72;;;19.20;99.90;;;;;;5051216;28;20182;-75
2023/09/07 02:06:36;;;;;;;4.63;3.53;;;19.10;99.90;;;;;;5048394;28;20177;-76
2023/09/07 02:09:04;;;;;;;4.28;3.70;;;19.10;99.90;;;;;;5063929;28;20173;-74
2023/09/07 02:11:32;;;;;;;3.90;3.50;;;19.10;99.90;;;;;;5076893;28;20173;-75
2023/09/07 02:13:59;;;;;;;4.18;3.40;;;19.10;99.90;;;;;;5076766;28;20219;-75
2023/09/07 02:16:27;;;;;;;3.78;3.38;;;19.10;99.90;;;;;;5064284;28;20186;-77
2023/09/07 02:19:02;;;;;;;4.28;3.50;;;19.10;99.90;;;;;;5055653;28;20264;-77
2023/09/07 02:21:31;;;;;;;4.55;3.70;;;19.10;99.90;;;;;;5050969;28;20212;-72
2023/09/07 02:23:56;;;;;;;5.15;3.95;;;19.10;99.90;;;;;;5052533;28;20182;-76
2023/09/07 02:26:24;;;;;;;4.75;4.20;;;19.00;99.90;;;;;;5054239;28;20420;-76
2023/09/07 02:28:52;;;;;;;5.10;4.00;;;18.90;99.90;;;;;;5052892;28;20197;-74
2023/09/07 02:31:17;;;;;;;4.80;3.90;;;18.90;99.90;;;;;;5055399;28;20185;-77
2023/09/07 02:33:45;;;;;;;5.53;4.13;;;18.90;99.90;;;;;;5056197;28;20205;-76
2023/09/07 02:36:11;;;;;;;4.65;3.88;;;18.90;99.90;;;;;;5045438;28;20197;-75
2023/09/07 02:38:36;;;;;;;4.18;3.75;;;18.80;99.90;;;;;;5047291;28;20169;-77
2023/09/07 02:41:02;;;;;;;3.75;3.33;;;18.80;99.90;;;;;;5044845;28;20173;-77
2023/09/07 02:43:28;;;;;;;3.80;3.40;;;18.70;99.90;;;;;;5055647;28;20184;-73
2023/09/07 02:45:56;;;;;;;4.00;3.40;;;18.70;99.90;;;;;;5051233;28;20178;-74
2023/09/07 02:48:21;;;;;;;3.83;3.25;;;18.70;99.90;;;;;;5051116;28;20188;-76
2023/09/07 02:50:50;;;;;;;3.72;3.33;;;18.70;99.90;;;;;;5051612;28;20202;-74
2023/09/07 02:53:16;;;;;;;3.78;3.35;;;18.70;99.90;;;;;;5041613;28;20201;-75
2023/09/07 02:55:42;;;;;;;4.93;3.60;;;18.70;99.90;;;;;;5051516;28;20199;-75
2023/09/07 02:58:07;;;;;;;4.30;3.40;;;18.70;99.90;;;;;;5051304;28;20177;-75
2023/09/07 03:00:40;;;;;;;4.32;3.40;;;18.70;99.90;;;;;;5054773;28;20178;-75
2023/09/07 03:03:06;;;;;;;4.40;3.53;;;18.70;99.90;;;;;;5065265;28;20194;-75
2023/09/07 03:05:34;;;;;;;5.50;3.50;;;18.70;99.90;;;;;;5059276;28;20188;-74
2023/09/07 03:08:03;;;;;;;5.32;3.53;;;18.70;99.90;;;;;;5063835;28;20200;-74
2023/09/07 03:10:28;;;;;;;5.05;3.38;;;18.70;99.90;;;;;;5054900;28;20261;-75
2023/09/07 03:12:54;;;;;;;4.07;3.60;;;18.70;99.90;;;;;;5054380;28;20358;-74
2023/09/07 03:15:24;;;;;;;4.75;3.65;;;18.70;99.90;;;;;;5043674;28;20174;-74
2023/09/07 03:17:55;;;;;;;4.72;3.70;;;18.70;99.90;;;;;;5055459;28;20173;-75
2023/09/07 03:20:23;;;;;;;5.82;5.03;;;18.70;99.90;;;;;;5055581;28;20180;-75
2023/09/07 03:22:48;;;;;;;9.90;8.75;;;18.70;99.90;;;;;;5055396;28;20243;-74
2023/09/07 03:25:16;;;;;;;6.75;5.78;;;18.70;99.90;;;;;;5055472;28;20387;-76
2023/09/07 03:27:44;;;;;;;6.55;4.95;;;18.60;99.90;;;;;;5054115;28;20228;-72
2023/09/07 03:30:12;;;;;;;5.63;4.45;;;18.60;99.90;;;;;;5055274;28;20598;-73
2023/09/07 03:32:38;;;;;;;4.97;4.25;;;18.60;99.90;;;;;;5055231;28;20268;-75
2023/09/07 03:35:09;;;;;;;6.18;4.13;;;18.60;99.90;;;;;;5055260;28;20292;-74
2023/09/07 03:37:35;;;;;;;5.90;4.70;;;18.60;99.90;;;;;;5055452;28;20176;-76
2023/09/07 03:40:06;;;;;;;5.57;4.20;;;18.60;99.90;;;;;;5054996;28;20173;-77
2023/09/07 03:42:34;;;;;;;6.30;4.07;;;18.50;99.90;;;;;;5054734;28;20197;-76
2023/09/07 03:44:59;;;;;;;4.93;3.67;;;18.50;99.90;;;;;;5054505;28;20177;-76
2023/09/07 03:47:28;;;;;;;4.55;3.83;;;18.50;99.90;;;;;;5054995;28;20196;-73
2023/09/07 03:49:57;;;;;;;6.07;3.58;;;18.50;99.90;;;;;;5040524;28;20197;-75
2023/09/07 03:52:24;;;;;;;4.60;3.63;;;18.50;99.90;;;;;;5040475;28;20192;-77
2023/09/07 03:54:51;;;;;;;4.82;3.67;;;18.50;99.90;;;;;;5036852;28;20220;-75
2023/09/07 03:57:19;;;;;;;6.95;6.00;;;18.40;99.90;;;;;;5036604;28;20174;-75
2023/09/07 03:59:45;;;;;;;6.18;5.00;;;18.40;99.90;;;;;;5047534;28;20170;-75
2023/09/07 04:02:10;;;;;;;6.00;4.15;;;18.40;99.90;;;;;;5054077;28;20204;-75
2023/09/07 04:04:38;;;;;;;5.43;4.20;;;18.40;99.90;;;;;;5054570;28;20367;-73
2023/09/07 04:07:04;;;;;;;5.32;3.95;;;18.40;99.90;;;;;;5058968;28;20276;-74
2023/09/07 04:09:35;;;;;;;4.43;3.83;;;18.30;99.90;;;;;;5039663;28;20229;-74
2023/09/07 04:12:03;;;;;;;6.10;4.22;;;18.30;99.90;;;;;;5040840;28;20177;-75
2023/09/07 04:14:31;;;;;;;4.30;3.90;;;18.30;99.90;;;;;;5051980;28;20197;-75
2023/09/07 04:16:58;;;;;;;4.57;4.00;;;18.30;99.90;;;;;;5049062;28;20177;-74
2023/09/07 04:19:28;;;;;;;4.43;3.40;;;18.20;99.90;;;;;;5043850;28;20181;-74
2023/09/07 04:21:57;;;;;;;5.22;4.10;;;18.20;99.90;;;;;;5054482;28;20200;-74
2023/09/07 04:24:24;;;;;;;9.65;8.48;;;18.20;99.90;;;;;;5053586;28;20177;-74
2023/09/07 04:26:53;;;;;;;7.88;6.93;;;18.20;99.90;;;;;;5051332;28;20208;-74
2023/09/07 04:29:23;;;;;;;7.38;6.07;;;18.20;99.90;;;;;;5042202;28;20201;-74
2023/09/07 04:31:49;;;;;;;6.05;5.10;;;18.20;99.90;;;;;;5038858;28;20176;-75
2023/09/07 04:34:15;;;;;;;6.05;4.57;;;18.20;99.90;;;;;;5048185;28;20254;-74
2023/09/07 04:36:40;;;;;;;5.22;4.40;;;18.20;99.90;;;;;;5054363;28;20157;-74
2023/09/07 04:39:08;;;;;;;6.75;4.05;;;18.10;99.90;;;;;;5045080;28;20222;-73
2023/09/07 04:41:34;;;;;;;6.53;5.20;;;18.20;99.90;;;;;;5054261;28;20201;-74
2023/09/07 04:44:02;;;;;;;7.18;5.82;;;18.10;99.90;;;;;;5050610;28;20180;-75
2023/09/07 04:46:29;;;;;;;5.20;4.68;;;18.10;99.90;;;;;;5057081;28;20201;-73
2023/09/07 04:48:55;;;;;;;7.15;4.85;;;18.10;99.90;;;;;;5050591;28;20240;-74
2023/09/07 04:51:25;;;;;;;7.13;5.50;;;18.10;99.90;;;;;;5047313;28;20204;-75
2023/09/07 04:53:51;;;;;;;6.20;4.32;;;18.00;99.90;;;;;;5057660;28;20197;-72
2023/09/07 04:56:20;;;;;;;4.72;4.18;;;18.00;99.90;;;;;;5043276;28;20189;-72
2023/09/07 04:58:50;;;;;;;4.90;4.05;;;18.00;99.90;;;;;;5057075;28;20191;-75
2023/09/07 05:01:18;;;;;;;4.45;3.80;;;18.00;99.90;;;;;;5057559;28;20177;-75
2023/09/07 05:03:43;;;;;;;5.28;3.90;;;18.00;99.90;;;;;;5049925;28;20192;-74
2023/09/07 05:06:11;;;;;;;4.43;3.90;;;18.00;99.90;;;;;;5045206;28;20182;-75
2023/09/07 05:08:36;;;;;;;8.82;4.32;;;18.00;99.90;;;;;;5050312;28;20209;-74
2023/09/07 05:11:06;;;;;;;4.57;4.05;;;18.00;99.90;;;;;;5048146;28;20186;-70
2023/09/07 05:13:35;;;;;;;4.82;3.83;;;18.00;99.90;;;;;;5053881;28;20201;-76
2023/09/07 05:16:01;;;;;;;5.20;3.85;;;17.90;99.90;;;;;;5054964;28;20197;-75
2023/09/07 05:18:27;;;;;;;5.93;4.20;;;18.00;99.90;;;;;;5049918;28;20187;-74
2023/09/07 05:20:57;;;;;;;4.40;4.00;;;17.90;99.90;;;;;;5058018;28;20170;-74
2023/09/07 05:23:24;;;;;;;5.00;4.05;;;17.90;99.90;;;;;;5055017;28;20174;-75
2023/09/07 05:25:54;;;;;;;6.68;5.00;;;17.90;99.90;;;;;;5038075;28;20178;-75
2023/09/07 05:28:21;;;;;;;5.28;4.35;;;17.90;99.90;;;;;;5037489;28;20252;-75
2023/09/07 05:30:52;;;;;;;5.32;4.18;;;18.00;99.90;;;;;;5037618;28;20197;-75
2023/09/07 05:33:18;;;;;;;5.18;4.43;;;18.00;99.90;;;;;;5037600;28;20190;-74
2023/09/07 05:35:46;;;;;;;4.25;3.83;;;18.00;99.90;;;;;;5039573;28;20558;-75
2023/09/07 05:38:12;;;;;;;4.80;4.22;;;18.00;99.90;;;;;;5057622;28;20260;-70
2023/09/07 05:40:40;;;;;;;5.65;4.05;;;18.00;99.90;;;;;;5057591;28;20259;-75
2023/09/07 05:43:05;;;;;;;4.88;3.97;;;18.00;99.90;;;;;;5057611;28;20169;-74
2023/09/07 05:45:36;;;;;;;4.60;4.03;;;18.10;99.90;;;;;;5057032;28;20177;-75
2023/09/07 05:48:05;;;;;;;4.10;3.63;;;18.00;99.90;;;;;;5056837;28;20197;-73
2023/09/07 05:50:33;;;;;;;4.50;3.47;;;18.10;99.90;;;;;;5057594;28;20258;-74
2023/09/07 05:52:59;;;;;;;4.63;3.55;;;18.10;99.90;;;;;;5048291;28;20204;-75
2023/09/07 05:55:24;;;;;;;5.30;3.72;;;18.20;99.90;;;;;;5050221;28;20228;-74
2023/09/07 05:57:52;;;;;;;4.70;3.78;;;18.20;99.90;;;;;;5051378;28;20189;-75
2023/09/07 06:00:18;;;;;;;4.68;3.70;;;18.20;99.90;;;;;;5054089;28;20202;-75
2023/09/07 06:02:50;;;;;;;5.43;3.88;;;18.20;99.90;;;;;;5076728;28;20271;-74
2023/09/07 06:05:18;;;;;;;4.40;3.67;;;18.30;99.90;;;;;;5056031;28;20177;-77
2023/09/07 06:07:44;;;;;;;5.10;3.45;;;18.30;99.90;;;;;;5063167;28;20226;-73
2023/09/07 06:10:12;;;;;;;4.22;3.42;;;18.30;99.90;;;;;;5062333;28;20185;-71
2023/09/07 06:12:38;;;;;;;4.88;3.65;;;18.30;99.90;;;;;;5056620;28;20189;-72
2023/09/07 06:15:04;;;;;;;3.78;3.30;;;18.40;99.90;;;;;;5063224;28;20210;-72
2023/09/07 06:17:32;;;;;;;5.22;3.15;;;18.40;99.90;;;;;;5070000;28;20165;-72
2023/09/07 06:19:58;;;;;;;6.50;3.72;;;18.40;99.90;;;;;;5056560;28;20201;-73
2023/09/07 06:22:26;;;;;;;6.72;3.63;;;18.50;99.90;;;;;;5056661;28;20177;-72
2023/09/07 06:24:51;;;;;;;4.13;3.35;;;18.50;99.90;;;;;;5056584;28;20182;-72
2023/09/07 06:27:17;;;;;;;4.88;3.40;;;18.50;99.90;;;;;;5056018;28;20186;-72
2023/09/07 06:29:43;;;;;;;4.05;3.33;;;18.60;99.90;;;;;;5056145;28;20177;-73
2023/09/07 06:32:08;;;;;;;4.97;3.00;;;18.60;99.90;;;;;;5056176;28;20231;-71
2023/09/07 06:34:36;;;;;;;5.18;3.05;;;18.70;99.90;;;;;;5049227;28;20359;-70
2023/09/07 06:37:02;;;;;;;3.95;3.33;;;18.70;99.90;;;;;;5044995;28;20178;-72
2023/09/07 06:39:28;;;;;;;4.38;3.33;;;18.80;99.90;;;;;;5043539;28;20193;-73
2023/09/07 06:41:55;;;;;;;5.07;3.50;;;18.80;99.90;;;;;;5055174;28;20212;-72
2023/09/07 06:44:23;;;;;;;3.78;2.88;;;18.80;99.90;;;;;;5056343;28;20173;-72
2023/09/07 06:46:49;;;;;;;3.97;3.30;;;18.90;99.90;;;;;;5065974;28;20199;-74
2023/09/07 06:49:15;;;;;;;4.38;3.40;;;19.00;99.90;;;;;;5081689;28;20207;-72
2023/09/07 06:51:40;;;;;;;4.68;3.25;;;19.00;99.90;;;;;;5080043;28;20197;-72
2023/09/07 06:54:10;;;;;;;4.00;3.40;;;19.10;99.90;;;;;;5059146;28;20278;-76
2023/09/07 06:56:39;;;;;;;4.90;3.33;;;19.10;99.90;;;;;;5056606;28;20166;-76
2023/09/07 06:59:04;;;;;;;4.57;3.40;;;19.20;99.90;;;;;;5056122;28;20205;-75
2023/09/07 07:01:32;;;;;;;5.13;3.22;;;19.30;99.90;;;;;;5056360;28;20165;-75
2023/09/07 07:03:58;;;;;;;3.58;3.28;;;19.30;99.90;;;;;;5056014;28;20173;-75
2023/09/07 07:06:26;;;;;;;5.30;3.75;;;19.40;99.90;;;;;;5055262;28;20327;-75
2023/09/07 07:08:52;;;;;;;4.35;3.33;;;19.40;99.90;;;;;;5055375;28;20179;-75
2023/09/07 07:11:18;;;;;;;3.75;2.90;;;19.50;99.90;;;;;;5055644;28;20264;-75
2023/09/07 07:13:46;;;;;;;4.00;3.50;;;19.50;99.90;;;;;;5055284;28;20209;-73
2023/09/07 07:16:11;;;;;;;5.70;3.90;;;19.60;99.90;;;;;;5055584;28;20201;-75
2023/09/07 07:18:39;;;;;;;4.25;3.30;;;19.60;99.90;;;;;;5055825;28;20169;-75
2023/09/07 07:21:05;;;;;;;5.90;3.60;;;19.70;99.90;;;;;;5055556;28;20283;-74
2023/09/07 07:23:33;;;;;;;4.47;3.35;;;19.80;99.90;;;;;;5055464;28;20201;-76
2023/09/07 07:25:59;;;;;;;3.50;3.20;;;19.80;99.90;;;;;;5055235;28;20187;-74
2023/09/07 07:28:24;;;;;;;3.45;3.08;;;19.90;99.90;;;;;;5056470;28;20241;-75
2023/09/07 07:30:52;;;;;;;3.92;3.25;;;20.00;99.90;;;;;;5075323;28;20407;-75
2023/09/07 07:33:17;;;;;;;5.15;3.30;;;20.10;99.90;;;;;;5075525;28;20169;-75
2023/09/07 07:35:43;;;;;;;4.13;3.10;;;20.20;99.90;;;;;;5062739;28;20189;-74
2023/09/07 07:38:09;;;;;;;3.33;3.03;;;20.20;99.90;;;;;;5055048;28;20169;-73
2023/09/07 07:40:36;;;;;;;4.03;2.90;;;20.30;99.90;;;;;;5055007;28;20173;-74
2023/09/07 07:43:04;;;;;;;4.45;3.08;;;20.30;99.90;;;;;;5055206;28;20208;-76
2023/09/07 07:45:36;;;;;;;4.60;3.17;;;20.40;99.90;;;;;;5055318;28;20180;-76
2023/09/07 07:48:07;;;;;;;4.00;3.00;;;20.50;99.90;;;;;;5054882;28;20193;-76
2023/09/07 07:50:37;;;;;;;4.05;3.28;;;20.60;99.90;;;;;;5054679;28;20189;-75
2023/09/07 07:53:06;;;;;;;3.95;3.15;;;20.70;99.90;;;;;;5054672;28;20166;-74
2023/09/07 07:55:38;;;;;;;4.63;3.25;;;20.80;99.90;;;;;;5054895;28;20173;-74
2023/09/07 07:58:12;;;;;;;4.68;3.40;;;20.90;99.90;;;;;;5054660;28;20201;-76
2023/09/07 08:00:38;;;;;;;4.32;3.25;;;21.00;99.90;;;;;;5058051;28;20165;-75
2023/09/07 08:03:06;;;;;;;4.63;2.97;;;21.10;99.90;;;;;;5074858;28;20176;-75
2023/09/07 08:05:32;;;;;;;4.47;3.22;;;21.20;99.90;;;;;;5074635;28;20339;-75
2023/09/07 08:07:58;;;;;;;6.55;3.35;;;21.30;99.90;;;;;;5074956;28;20196;-75
2023/09/07 08:10:26;;;;;;;3.45;3.13;;;21.40;99.90;;;;;;5075095;28;20169;-70
2023/09/07 08:12:56;;;;;;;5.78;3.42;;;21.60;99.90;;;;;;5069822;28;20205;-73
2023/09/07 08:15:24;;;;;;;4.40;2.88;;;21.70;99.90;;;;;;5054816;28;20205;-75
2023/09/07 08:17:50;;;;;;;3.47;2.97;;;21.80;99.90;;;;;;5055136;28;20191;-74
2023/09/07 08:20:16;;;;;;;3.22;2.80;;;21.90;99.90;;;;;;5054825;28;20205;-76
2023/09/07 08:22:42;;;;;;;3.60;2.97;;;21.90;99.90;;;;;;5074779;28;20275;-77
2023/09/07 08:25:15;;;;;;;4.55;3.22;;;22.10;99.90;;;;;;5074688;28;20187;-74
2023/09/07 08:27:45;;;;;;;3.00;2.70;;;22.20;99.90;;;;;;5073720;28;20245;-77
2023/09/07 08:30:17;;;;;;;3.28;2.80;;;22.20;99.90;;;;;;5068291;28;20226;-77
2023/09/07 08:32:45;;;;;;;3.63;3.03;;;22.40;99.90;;;;;;5054385;28;20181;-72
2023/09/07 08:35:14;;;;;;;5.10;2.88;;;22.40;99.90;;;;;;5054035;28;20243;-74
2023/09/07 08:37:40;;;;;;;4.22;3.00;;;22.60;99.90;;;;;;5054330;28;20234;-75
2023/09/07 08:40:07;;;;;;;5.28;3.08;;;22.70;99.90;;;;;;5054342;28;20260;-76
2023/09/07 08:42:36;;;;;;;3.60;2.80;;;22.70;99.90;;;;;;5054540;28;20176;-76
2023/09/07 08:45:06;;;;;;;3.17;2.88;;;22.80;99.90;;;;;;5054341;28;20179;-76
2023/09/07 08:47:39;;;;;;;3.40;3.03;;;22.90;99.90;;;;;;5054436;28;20235;-74
2023/09/07 08:50:08;;;;;;;3.22;2.83;;;23.00;99.90;;;;;;5054142;28;20173;-76
2023/09/07 08:52:40;;;;;;;3.33;2.75;;;23.10;99.90;;;;;;5057007;28;20204;-77
2023/09/07 08:55:06;;;;;;;3.60;2.90;;;23.20;99.90;;;;;;5074242;28;20243;-73
2023/09/07 08:57:32;;;;;;;3.63;2.90;;;23.30;99.90;;;;;;5073952;28;20165;-77
2023/09/07 09:00:01;;;;;;;3.10;2.78;;;23.40;99.90;;;;;;5074319;28;20283;-74
2023/09/07 09:02:29;;;;;;;4.47;2.70;;;23.50;99.90;;;;;;5073882;28;20203;-75
2023/09/07 09:04:54;;;;;;;3.42;2.67;;;23.60;99.90;;;;;;5074262;28;20184;-75
2023/09/07 09:07:21;;;;;;;2.95;2.65;;;23.60;99.90;;;;;;5064982;28;20177;-75
2023/09/07 09:09:49;;;;;;;3.33;2.92;;;23.70;99.90;;;;;;5054295;28;20197;-76
2023/09/07 09:12:15;;;;;;;3.00;2.47;;;23.80;99.90;;;;;;5070224;28;20176;-74
2023/09/07 09:14:47;;;;;;;2.72;2.35;;;24.00;99.90;;;;;;5073917;28;20204;-77
2023/09/07 09:17:14;;;;;;;4.38;2.83;;;24.10;99.90;;;;;;5074012;28;20165;-76
2023/09/07 09:19:41;;;;;;;3.13;2.70;;;24.10;99.90;;;;;;5073695;28;20180;-76
2023/09/07 09:22:07;;;;;;;3.08;2.78;;;24.30;99.90;;;;;;5074703;28;20212;-65
2023/09/07 09:24:35;;;;;;;2.63;2.42;;;24.40;99.90;;;;;;5056011;28;20204;-67
2023/09/07 09:27:01;;;;;;;3.25;2.60;;;24.50;99.90;;;;;;5053790;28;20173;-66
2023/09/07 09:29:32;;;;;;;3.58;2.92;;;24.60;99.90;;;;;;5053471;28;20291;-67
2023/09/07 09:32:04;;;;;;;2.95;2.65;;;24.70;99.90;;;;;;5053515;28;20188;-66
2023/09/07 09:34:34;;;;;;;4.13;2.97;;;24.80;99.90;;;;;;5053661;28;20197;-66
2023/09/07 09:37:02;;;;;;;4.50;2.75;;;24.90;99.90;;;;;;5053609;28;20205;-67
2023/09/07 09:39:27;;;;;;;4.80;2.90;;;25.10;99.90;;;;;;5055266;28;20177;-66
2023/09/07 09:41:56;;;;;;;3.97;2.72;;;25.20;99.90;;;;;;5056870;28;20173;-67
2023/09/07 09:44:29;;;;;;;3.80;2.70;;;25.30;99.90;;;;;;5057276;28;20201;-66
2023/09/07 09:46:58;;;;;;;3.05;2.50;;;25.40;99.90;;;;;;5056993;28;20243;-66
2023/09/07 09:49:26;;;;;;;3.05;2.42;;;25.50;99.90;;;;;;5057012;28;20298;-67
2023/09/07 09:51:58;;;;;;;3.80;3.00;;;25.70;99.90;;;;;;5057218;28;20177;-66
2023/09/07 09:54:27;;;;;;;3.03;2.33;;;25.90;99.90;;;;;;5056961;28;20227;-66
2023/09/07 09:56:53;;;;;;;5.47;2.83;;;26.30;99.90;;;;;;5056869;28;20192;-66
2023/09/07 09:59:19;;;;;;;3.20;2.50;;;26.90;99.90;;;;;;5056946;28;20197;-66
2023/09/07 10:01:47;;;;;;;3.80;2.42;;;27.60;99.90;;;;;;5057850;28;20232;-66
2023/09/07 10:04:17;;;;;;;3.03;2.53;;;28.30;99.90;;;;;;5056653;28;20197;-67
2023/09/07 10:07:00;;;;;;;2.67;2.42;;;29.00;99.90;;;;;;5056792;28;20166;-67
2023/09/07 10:09:31;;;;;;;2.65;2.35;;;29.60;99.90;;;;;;5056654;28;20189;-67
2023/09/07 10:11:59;;;;;;;3.33;2.55;;;30.10;99.90;;;;;;5056471;28;20173;-67
2023/09/07 10:14:25;;;;;;;3.00;2.70;;;30.60;99.90;;;;;;5074589;28;20293;-66
2023/09/07 10:17:03;;;;;;;2.50;2.13;;;31.00;99.90;;;;;;5076289;28;20234;-66
2023/09/07 10:19:29;;;;;;;2.90;2.60;;;31.40;99.90;;;;;;5076825;28;20245;-67
2023/09/07 10:21:57;;;;;;;2.72;2.28;;;31.90;99.90;;;;;;5062884;28;20215;-67
2023/09/07 10:24:39;;;;;;;2.60;2.30;;;32.20;99.90;;;;;;5074097;28;20206;-67
2023/09/07 10:27:11;;;;;;;3.42;2.50;;;32.50;99.90;;;;;;5076079;28;20191;-65
2023/09/07 10:29:46;;;;;;;3.67;2.45;;;32.70;99.90;;;;;;5076133;28;20204;-66
2023/09/07 10:32:14;;;;;;;2.55;2.35;;;33.00;99.90;;;;;;5076364;28;20172;-67
2023/09/07 10:34:43;;;;;;;2.88;2.33;;;33.20;99.90;;;;;;5061352;28;20262;-66
2023/09/07 10:37:13;;;;;;;3.25;2.50;;;33.40;99.90;;;;;;5056095;28;20278;-66
2023/09/07 10:39:42;;;;;;;2.58;2.17;;;33.60;99.90;;;;;;5056727;28;20165;-66
2023/09/07 10:42:11;;;;;;;2.47;1.95;;;33.80;99.90;;;;;;5056353;28;20173;-66
2023/09/07 10:44:36;;;;;;;3.38;2.00;;;33.90;99.90;;;;;;5055991;28;20302;-66
2023/09/07 10:47:04;;;;;;;2.15;1.90;;;34.10;99.90;;;;;;5055932;28;20172;-66
2023/09/07 10:49:32;;;;;;;2.40;2.20;;;34.20;99.90;;;;;;5055683;28;20177;-66
2023/09/07 10:51:57;;;;;;;2.38;2.17;;;34.30;99.70;;;;;;5055862;28;20205;-67
2023/09/07 10:54:24;;;;;;;2.50;2.30;;;34.40;99.80;;;;;;5055874;28;20259;-67
2023/09/07 10:56:53;;;;;;;3.72;2.50;;;34.40;99.20;;;;;;5055574;28;20169;-66
2023/09/07 10:59:21;;;;;;;3.33;2.25;;;34.40;97.40;;;;;;5055726;28;20173;-66
2023/09/07 11:01:48;;;;;;;2.78;2.25;;;34.40;97.10;;;;;;5068696;28;20202;-68
2023/09/07 11:04:20;;;;;;;2.38;2.10;;;34.40;97.70;;;;;;5075107;28;20200;-67
2023/09/07 11:06:49;;;;;;;2.47;2.28;;;34.40;97.20;;;;;;5071322;28;20173;-67
2023/09/07 11:09:19;;;;;;;3.30;2.40;;;34.40;96.50;;;;;;5072051;28;20191;-68
2023/09/07 11:11:51;;;;;;;2.55;2.30;;;34.40;95.60;;;;;;5075383;28;20196;-66
2023/09/07 11:14:21;;;;;;;2.40;2.20;;;34.40;96.90;;;;;;5074836;28;20215;-67
2023/09/07 11:16:52;;;;;;;4.57;2.38;;;34.40;95.60;;;;;;5055594;28;20172;-67
2023/09/07 11:19:21;;;;;;;2.47;2.28;;;34.40;95.80;;;;;;5055471;28;20188;-67
2023/09/07 11:21:47;;;;;;;2.90;2.25;;;34.50;95.80;;;;;;5055490;28;20165;-67
2023/09/07 11:24:13;;;;;;;3.50;2.30;;;34.50;95.50;;;;;;5055257;28;20175;-68
2023/09/07 11:26:48;;;;;;;4.15;2.40;;;34.50;95.50;;;;;;5055522;28;20173;-67
2023/09/07 11:29:15;;;;;;;2.58;2.38;;;34.60;93.90;;;;;;5055360;28;20243;-67
2023/09/07 11:31:43;;;;;;;3.20;2.35;;;34.50;94.90;;;;;;5054919;28;20201;-67
2023/09/07 11:34:14;;;;;;;2.55;2.35;;;34.60;94.90;;;;;;5054926;28;20204;-68
2023/09/07 11:36:43;;;;;;;3.83;2.20;;;34.50;94.00;;;;;;5055265;28;20164;-67
2023/09/07 11:39:14;;;;;;;3.70;2.20;;;34.50;93.60;;;;;;5055302;28;20227;-68
2023/09/07 11:41:46;;;;;;;3.17;2.20;;;34.50;93.00;;;;;;5055173;28;20200;-67
2023/09/07 11:44:12;;;;;;;2.50;2.30;;;34.50;91.40;;;;;;5055035;28;20222;-67
2023/09/07 11:46:38;;;;;;;2.30;2.03;;;34.40;92.20;;;;;;5055088;28;20168;-66
2023/09/07 11:49:04;;;;;;;2.75;2.30;;;34.40;91.60;;;;;;5061624;28;20240;-67
2023/09/07 11:51:32;;;;;;;2.50;2.30;;;34.40;91.70;;;;;;5074813;28;20172;-67
2023/09/07 11:53:59;;;;;;;2.85;2.50;;;34.40;90.20;;;;;;5074640;28;20184;-67
2023/09/07 11:56:29;;;;;;;2.40;2.20;;;34.40;90.20;;;;;;5074642;28;20168;-67
2023/09/07 11:58:57;;;;;;;2.25;2.03;;;34.40;89.70;;;;;;5066169;28;20228;-67
2023/09/07 12:01:23;;;;;;;2.20;2.00;;;34.40;89.70;;;;;;5053710;28;20173;-68
2023/09/07 12:03:50;;;;;;;2.10;1.90;;;34.40;89.00;;;;;;5054671;28;20176;-66
2023/09/07 12:06:18;;;;;;;2.50;1.95;;;34.40;88.80;;;;;;5054250;28;20258;-67
2023/09/07 12:09:01;;;;;;;2.75;2.10;;;34.50;88.90;;;;;;5055578;28;20168;-67
2023/09/07 12:11:26;;;;;;;2.58;1.90;;;34.50;84.40;;;;;;5054452;28;20172;-68
2023/09/07 12:13:54;;;;;;;2.30;2.10;;;34.60;87.00;;;;;;5054404;28;20254;-67
2023/09/07 12:16:22;;;;;;;2.53;2.30;;;34.60;86.60;;;;;;5054335;28;20176;-67
2023/09/07 12:18:48;;;;;;;2.20;2.00;;;34.70;85.30;;;;;;5058894;28;20253;-68
2023/09/07 12:21:14;;;;;;;2.83;2.17;;;34.70;84.90;;;;;;5074494;28;20179;-68
2023/09/07 12:23:40;;;;;;;2.92;2.20;;;34.70;84.00;;;;;;5075238;28;20168;-68
2023/09/07 12:26:05;;;;;;;2.33;2.13;;;34.70;83.30;;;;;;5074564;28;20200;-68
2023/09/07 12:28:33;;;;;;;3.35;2.20;;;34.70;83.40;;;;;;5072075;28;20178;-67
2023/09/07 12:30:59;;;;;;;2.00;1.80;;;34.70;82.30;;;;;;5054445;28;20446;-67
2023/09/07 12:33:30;;;;;;;3.35;2.10;;;34.80;83.20;;;;;;5053915;28;20239;-68
2023/09/07 12:35:58;;;;;;;2.80;2.25;;;34.80;80.70;;;;;;5067407;28;20179;-67
2023/09/07 12:38:28;;;;;;;3.13;2.00;;;34.90;81.00;;;;;;5057470;28;20201;-67
2023/09/07 12:40:54;;;;;;;2.25;2.05;;;34.90;80.50;;;;;;5074387;28;20228;-67
2023/09/07 12:43:19;;;;;;;2.30;2.10;;;34.90;79.90;;;;;;5074205;28;20263;-67
2023/09/07 12:45:48;;;;;;;4.47;2.10;;;35.00;80.10;;;;;;5073983;28;20183;-66
2023/09/07 12:48:14;;;;;;;3.40;2.10;;;35.10;78.00;;;;;;5074373;28;20287;-68
2023/09/07 12:50:42;;;;;;;2.20;2.00;;;35.10;79.10;;;;;;5059298;28;20216;-67